sensor_id;sensor_type;location;lat;lon;timestamp;pressure;altitude;pressure_sealevel;temperature;humidity
35419;BME280;21525;41.240;16.500;2023-03-20T00:01:13;101757.28;;;21.03;50.50
35419;BME280;21525;41.240;16.500;2023-03-20T00:03:40;101763.03;;;20.69;51.18
35419;BME280;21525;41.240;16.500;2023-03-20T00:06:13;101768.56;;;20.85;50.57
35419;BME280;21525;41.240;16.500;2023-03-20T00:08:39;101754.22;;;20.68;50.65
35419;BME280;21525;41.240;16.500;2023-03-20T00:11:55;101758.25;;;20.55;50.99
35419;BME280;21525;41.240;16.500;2023-03-20T00:14:09;101755.91;;;20.48;50.98
35419;BME280;21525;41.240;16.500;2023-03-20T00:16:37;101750.31;;;20.55;50.87
35419;BME280;21525;41.240;16.500;2023-03-20T00:19:05;101750.97;;;20.62;50.21
35419;BME280;21525;41.240;16.500;2023-03-20T00:21:33;101749.34;;;20.58;49.96
35419;BME280;21525;41.240;16.500;2023-03-20T00:23:58;101743.38;;;20.53;49.97
35419;BME280;21525;41.240;16.500;2023-03-20T00:26:33;101749.34;;;20.34;50.31
35419;BME280;21525;41.240;16.500;2023-03-20T00:29:02;101752.31;;;20.25;50.57
35419;BME280;21525;41.240;16.500;2023-03-20T00:31:35;101755.34;;;20.39;50.30
35419;BME280;21525;41.240;16.500;2023-03-20T00:34:09;101760.81;;;20.33;50.05
35419;BME280;21525;41.240;16.500;2023-03-20T00:36:36;101752.53;;;20.44;49.73
35419;BME280;21525;41.240;16.500;2023-03-20T00:39:03;101745.31;;;20.48;49.71
35419;BME280;21525;41.240;16.500;2023-03-20T00:44:29;101751.44;;;20.25;49.86
35419;BME280;21525;41.240;16.500;2023-03-20T00:47:11;101758.22;;;20.08;50.12
35419;BME280;21525;41.240;16.500;2023-03-20T00:49:37;101749.00;;;19.95;50.62
35419;BME280;21525;41.240;16.500;2023-03-20T00:52:05;101750.50;;;20.02;50.02
35419;BME280;21525;41.240;16.500;2023-03-20T00:54:31;101748.84;;;20.00;49.70
35419;BME280;21525;41.240;16.500;2023-03-20T00:57:11;101747.72;;;20.07;49.75
35419;BME280;21525;41.240;16.500;2023-03-20T00:59:41;101736.66;;;19.96;49.71
35419;BME280;21525;41.240;16.500;2023-03-20T01:02:12;101732.13;;;19.99;49.79
35419;BME280;21525;41.240;16.500;2023-03-20T01:04:40;101738.00;;;20.07;49.54
35419;BME280;21525;41.240;16.500;2023-03-20T01:07:11;101735.22;;;20.12;49.74
35419;BME280;21525;41.240;16.500;2023-03-20T01:09:37;101746.72;;;19.85;50.61
35419;BME280;21525;41.240;16.500;2023-03-20T01:12:04;101737.13;;;19.82;50.12
35419;BME280;21525;41.240;16.500;2023-03-20T01:14:30;101739.00;;;19.80;50.31
35419;BME280;21525;41.240;16.500;2023-03-20T01:16:56;101740.28;;;19.93;49.76
35419;BME280;21525;41.240;16.500;2023-03-20T01:19:22;101745.44;;;19.96;49.58
35419;BME280;21525;41.240;16.500;2023-03-20T01:21:47;101736.38;;;19.80;50.04
35419;BME280;21525;41.240;16.500;2023-03-20T01:24:13;101728.69;;;19.97;50.00
35419;BME280;21525;41.240;16.500;2023-03-20T01:26:41;101722.59;;;20.19;49.81
35419;BME280;21525;41.240;16.500;2023-03-20T01:29:19;101723.53;;;20.18;50.25
35419;BME280;21525;41.240;16.500;2023-03-20T01:31:45;101726.06;;;20.21;49.86
35419;BME280;21525;41.240;16.500;2023-03-20T01:34:11;101718.06;;;20.22;49.97
35419;BME280;21525;41.240;16.500;2023-03-20T01:36:38;101722.66;;;19.94;50.59
35419;BME280;21525;41.240;16.500;2023-03-20T01:39:04;101717.25;;;19.97;50.45
35419;BME280;21525;41.240;16.500;2023-03-20T01:41:31;101710.78;;;20.29;49.71
35419;BME280;21525;41.240;16.500;2023-03-20T01:43:57;101715.50;;;20.21;49.97
35419;BME280;21525;41.240;16.500;2023-03-20T01:46:29;101719.09;;;20.18;49.56
35419;BME280;21525;41.240;16.500;2023-03-20T01:51:47;101709.56;;;19.91;50.79
35419;BME280;21525;41.240;16.500;2023-03-20T01:54:14;101713.44;;;20.05;50.76
35419;BME280;21525;41.240;16.500;2023-03-20T01:59:27;101706.53;;;20.01;50.62
35419;BME280;21525;41.240;16.500;2023-03-20T02:01:55;101703.25;;;19.95;50.96
35419;BME280;21525;41.240;16.500;2023-03-20T02:04:25;101688.59;;;19.86;50.92
35419;BME280;21525;41.240;16.500;2023-03-20T02:06:59;101686.00;;;19.35;51.81
35419;BME280;21525;41.240;16.500;2023-03-20T02:09:36;101686.63;;;19.68;51.07
35419;BME280;21525;41.240;16.500;2023-03-20T02:12:06;101692.50;;;19.76;50.53
35419;BME280;21525;41.240;16.500;2023-03-20T02:14:34;101691.09;;;19.66;50.76
35419;BME280;21525;41.240;16.500;2023-03-20T02:17:19;101693.03;;;19.61;51.20
35419;BME280;21525;41.240;16.500;2023-03-20T02:20:03;101683.41;;;19.60;51.32
35419;BME280;21525;41.240;16.500;2023-03-20T02:30:53;101681.41;;;19.66;57.87
35419;BME280;21525;41.240;16.500;2023-03-20T02:42:05;101694.22;;;19.26;56.21
35419;BME280;21525;41.240;16.500;2023-03-20T02:48:15;101691.22;;;19.63;54.06
35419;BME280;21525;41.240;16.500;2023-03-20T02:54:06;101689.31;;;19.66;53.78
35419;BME280;21525;41.240;16.500;2023-03-20T03:01:26;101678.84;;;19.38;55.54
35419;BME280;21525;41.240;16.500;2023-03-20T03:03:57;101676.81;;;19.46;55.39
35419;BME280;21525;41.240;16.500;2023-03-20T03:06:31;101677.00;;;19.67;55.06
35419;BME280;21525;41.240;16.500;2023-03-20T03:09:06;101674.38;;;19.40;56.01
35419;BME280;21525;41.240;16.500;2023-03-20T03:11:37;101672.34;;;19.49;55.72
35419;BME280;21525;41.240;16.500;2023-03-20T03:14:06;101669.81;;;19.45;56.56
35419;BME280;21525;41.240;16.500;2023-03-20T03:16:36;101672.31;;;18.97;59.04
35419;BME280;21525;41.240;16.500;2023-03-20T03:19:14;101662.06;;;18.88;59.99
35419;BME280;21525;41.240;16.500;2023-03-20T03:21:40;101670.59;;;18.40;62.13
35419;BME280;21525;41.240;16.500;2023-03-20T03:24:34;101668.16;;;19.17;59.92
35419;BME280;21525;41.240;16.500;2023-03-20T03:29:55;101664.09;;;19.33;59.23
35419;BME280;21525;41.240;16.500;2023-03-20T03:32:45;101654.13;;;19.41;58.71
35419;BME280;21525;41.240;16.500;2023-03-20T03:35:20;101657.94;;;19.32;60.43
35419;BME280;21525;41.240;16.500;2023-03-20T03:38:48;101649.28;;;19.29;60.42
35419;BME280;21525;41.240;16.500;2023-03-20T03:40:50;101650.44;;;19.46;60.04
35419;BME280;21525;41.240;16.500;2023-03-20T03:43:31;101654.72;;;19.49;60.04
35419;BME280;21525;41.240;16.500;2023-03-20T03:46:03;101650.06;;;19.57;59.78
35419;BME280;21525;41.240;16.500;2023-03-20T03:48:39;101629.38;;;19.70;59.58
35419;BME280;21525;41.240;16.500;2023-03-20T03:51:11;101636.81;;;19.59;59.96
35419;BME280;21525;41.240;16.500;2023-03-20T03:54:06;101631.34;;;19.38;60.85
35419;BME280;21525;41.240;16.500;2023-03-20T03:56:37;101624.25;;;19.40;60.81
35419;BME280;21525;41.240;16.500;2023-03-20T03:59:10;101619.03;;;19.39;60.91
35419;BME280;21525;41.240;16.500;2023-03-20T04:01:39;101618.34;;;19.59;60.96
35419;BME280;21525;41.240;16.500;2023-03-20T04:04:11;101617.41;;;19.60;61.29
35419;BME280;21525;41.240;16.500;2023-03-20T04:06:39;101629.97;;;19.53;61.36
35419;BME280;21525;41.240;16.500;2023-03-20T04:09:07;101623.63;;;19.59;60.93
35419;BME280;21525;41.240;16.500;2023-03-20T04:11:33;101631.38;;;19.63;61.55
35419;BME280;21525;41.240;16.500;2023-03-20T04:14:01;101624.53;;;19.58;61.83
35419;BME280;21525;41.240;16.500;2023-03-20T04:16:27;101624.47;;;19.34;62.89
35419;BME280;21525;41.240;16.500;2023-03-20T04:18:54;101629.81;;;19.58;62.12
35419;BME280;21525;41.240;16.500;2023-03-20T04:21:21;101626.53;;;19.51;62.40
35419;BME280;21525;41.240;16.500;2023-03-20T04:23:47;101627.38;;;19.52;61.99
35419;BME280;21525;41.240;16.500;2023-03-20T04:26:13;101613.22;;;19.79;61.64
35419;BME280;21525;41.240;16.500;2023-03-20T04:28:39;101622.00;;;19.55;62.29
35419;BME280;21525;41.240;16.500;2023-03-20T04:31:20;101637.72;;;19.58;61.76
35419;BME280;21525;41.240;16.500;2023-03-20T04:34:12;101632.72;;;19.98;60.38
35419;BME280;21525;41.240;16.500;2023-03-20T04:36:49;101642.13;;;19.32;63.57
35419;BME280;21525;41.240;16.500;2023-03-20T04:39:17;101646.47;;;19.33;63.04
35419;BME280;21525;41.240;16.500;2023-03-20T04:41:43;101656.09;;;19.61;61.41
35419;BME280;21525;41.240;16.500;2023-03-20T04:44:09;101657.84;;;19.35;62.67
35419;BME280;21525;41.240;16.500;2023-03-20T04:46:36;101658.16;;;19.00;63.87
35419;BME280;21525;41.240;16.500;2023-03-20T04:49:07;101650.75;;;18.85;62.54
35419;BME280;21525;41.240;16.500;2023-03-20T04:51:33;101642.84;;;18.85;60.92
35419;BME280;21525;41.240;16.500;2023-03-20T04:53:58;101632.63;;;18.75;60.82
35419;BME280;21525;41.240;16.500;2023-03-20T04:56:24;101637.31;;;18.66;60.52
35419;BME280;21525;41.240;16.500;2023-03-20T04:58:52;101650.31;;;18.72;60.09
35419;BME280;21525;41.240;16.500;2023-03-20T05:01:20;101649.69;;;18.64;60.09
35419;BME280;21525;41.240;16.500;2023-03-20T05:03:48;101647.34;;;18.53;60.29
35419;BME280;21525;41.240;16.500;2023-03-20T05:06:14;101659.16;;;18.69;59.53
35419;BME280;21525;41.240;16.500;2023-03-20T05:08:42;101659.41;;;18.62;58.01
35419;BME280;21525;41.240;16.500;2023-03-20T05:11:08;101649.84;;;18.58;57.36
35419;BME280;21525;41.240;16.500;2023-03-20T05:13:53;101655.97;;;18.58;56.88
35419;BME280;21525;41.240;16.500;2023-03-20T05:16:29;101656.91;;;18.56;56.68
35419;BME280;21525;41.240;16.500;2023-03-20T05:19:24;101654.72;;;18.71;56.12
35419;BME280;21525;41.240;16.500;2023-03-20T05:22:09;101657.75;;;18.86;56.01
35419;BME280;21525;41.240;16.500;2023-03-20T05:24:52;101657.53;;;18.65;56.94
35419;BME280;21525;41.240;16.500;2023-03-20T05:27:48;101658.13;;;18.75;56.45
35419;BME280;21525;41.240;16.500;2023-03-20T05:30:28;101648.66;;;19.21;55.58
35419;BME280;21525;41.240;16.500;2023-03-20T05:33:12;101652.84;;;19.01;56.42
35419;BME280;21525;41.240;16.500;2023-03-20T05:36:10;101656.47;;;19.24;56.24
35419;BME280;21525;41.240;16.500;2023-03-20T05:38:54;101663.97;;;19.36;56.52
35419;BME280;21525;41.240;16.500;2023-03-20T05:41:43;101647.53;;;19.54;57.01
35419;BME280;21525;41.240;16.500;2023-03-20T05:44:27;101645.78;;;19.28;57.17
35419;BME280;21525;41.240;16.500;2023-03-20T05:47:19;101630.50;;;19.63;55.76
35419;BME280;21525;41.240;16.500;2023-03-20T05:50:03;101635.56;;;20.39;54.37
35419;BME280;21525;41.240;16.500;2023-03-20T05:52:29;101637.94;;;20.47;53.08
35419;BME280;21525;41.240;16.500;2023-03-20T05:55:29;101630.03;;;20.67;52.50
35419;BME280;21525;41.240;16.500;2023-03-20T05:58:27;101637.97;;;20.67;52.75
35419;BME280;21525;41.240;16.500;2023-03-20T06:01:11;101640.75;;;21.06;51.87
35419;BME280;21525;41.240;16.500;2023-03-20T06:04:02;101635.78;;;21.19;50.92
35419;BME280;21525;41.240;16.500;2023-03-20T06:06:58;101637.22;;;21.27;50.68
35419;BME280;21525;41.240;16.500;2023-03-20T06:09:24;101638.13;;;20.84;51.84
35419;BME280;21525;41.240;16.500;2023-03-20T06:11:49;101642.50;;;20.85;52.35
35419;BME280;21525;41.240;16.500;2023-03-20T06:14:16;101631.75;;;21.32;51.46
35419;BME280;21525;41.240;16.500;2023-03-20T06:16:47;101617.25;;;21.98;50.23
35419;BME280;21525;41.240;16.500;2023-03-20T06:19:14;101618.66;;;22.07;49.52
35419;BME280;21525;41.240;16.500;2023-03-20T06:21:40;101628.63;;;22.02;49.65
35419;BME280;21525;41.240;16.500;2023-03-20T06:24:10;101641.19;;;22.16;49.15
35419;BME280;21525;41.240;16.500;2023-03-20T06:26:36;101647.94;;;23.31;47.74
35419;BME280;21525;41.240;16.500;2023-03-20T06:29:07;101649.97;;;23.60;46.00
35419;BME280;21525;41.240;16.500;2023-03-20T06:31:33;101648.94;;;23.11;47.06
35419;BME280;21525;41.240;16.500;2023-03-20T06:34:00;101646.31;;;23.78;45.29
35419;BME280;21525;41.240;16.500;2023-03-20T06:36:28;101637.47;;;24.58;44.12
35419;BME280;21525;41.240;16.500;2023-03-20T06:39:01;101628.63;;;25.63;41.66
35419;BME280;21525;41.240;16.500;2023-03-20T06:41:28;101627.09;;;26.43;39.99
35419;BME280;21525;41.240;16.500;2023-03-20T06:43:54;101628.50;;;27.15;38.70
35419;BME280;21525;41.240;16.500;2023-03-20T06:46:21;101627.25;;;27.84;37.40
35419;BME280;21525;41.240;16.500;2023-03-20T06:48:47;101628.44;;;27.67;36.72
35419;BME280;21525;41.240;16.500;2023-03-20T06:51:14;101625.13;;;27.64;37.94
35419;BME280;21525;41.240;16.500;2023-03-20T06:53:48;101622.00;;;27.44;37.54
35419;BME280;21525;41.240;16.500;2023-03-20T06:56:18;101615.81;;;26.79;37.79
35419;BME280;21525;41.240;16.500;2023-03-20T06:58:44;101608.13;;;25.78;39.08
35419;BME280;21525;41.240;16.500;2023-03-20T07:01:12;101603.47;;;25.96;38.97
35419;BME280;21525;41.240;16.500;2023-03-20T07:03:39;101618.44;;;25.40;40.08
35419;BME280;21525;41.240;16.500;2023-03-20T07:06:07;101622.44;;;26.86;38.15
35419;BME280;21525;41.240;16.500;2023-03-20T07:08:35;101633.91;;;24.89;40.80
35419;BME280;21525;41.240;16.500;2023-03-20T07:11:01;101647.44;;;24.39;41.80
35419;BME280;21525;41.240;16.500;2023-03-20T07:13:30;101648.16;;;24.09;42.37
35419;BME280;21525;41.240;16.500;2023-03-20T07:16:00;101655.09;;;23.63;43.35
35419;BME280;21525;41.240;16.500;2023-03-20T07:18:26;101650.91;;;23.75;43.14
35419;BME280;21525;41.240;16.500;2023-03-20T07:20:53;101655.09;;;24.29;42.83
35419;BME280;21525;41.240;16.500;2023-03-20T07:23:23;101634.50;;;24.94;42.10
35419;BME280;21525;41.240;16.500;2023-03-20T07:25:48;101630.75;;;25.99;40.10
35419;BME280;21525;41.240;16.500;2023-03-20T07:28:17;101626.63;;;28.30;36.94
35419;BME280;21525;41.240;16.500;2023-03-20T07:30:50;101615.00;;;28.18;36.31
35419;BME280;21525;41.240;16.500;2023-03-20T07:33:16;101621.69;;;27.74;37.13
35419;BME280;21525;41.240;16.500;2023-03-20T07:35:43;101634.28;;;27.98;36.86
35419;BME280;21525;41.240;16.500;2023-03-20T07:38:10;101637.75;;;27.74;37.89
35419;BME280;21525;41.240;16.500;2023-03-20T07:40:45;101637.31;;;27.81;37.72
35419;BME280;21525;41.240;16.500;2023-03-20T07:43:15;101624.91;;;27.67;37.06
35419;BME280;21525;41.240;16.500;2023-03-20T07:46:04;101639.09;;;28.05;37.13
35419;BME280;21525;41.240;16.500;2023-03-20T07:48:32;101634.38;;;27.07;38.79
35419;BME280;21525;41.240;16.500;2023-03-20T07:50:58;101640.63;;;26.94;38.86
35419;BME280;21525;41.240;16.500;2023-03-20T07:53:25;101638.81;;;26.94;38.50
35419;BME280;21525;41.240;16.500;2023-03-20T07:55:51;101646.50;;;26.99;38.98
35419;BME280;21525;41.240;16.500;2023-03-20T07:58:17;101654.50;;;27.38;38.15
35419;BME280;21525;41.240;16.500;2023-03-20T08:00:42;101651.75;;;27.65;38.08
35419;BME280;21525;41.240;16.500;2023-03-20T08:03:09;101665.81;;;28.18;37.85
35419;BME280;21525;41.240;16.500;2023-03-20T08:05:35;101665.28;;;28.00;37.06
35419;BME280;21525;41.240;16.500;2023-03-20T08:08:01;101665.09;;;27.53;37.75
35419;BME280;21525;41.240;16.500;2023-03-20T08:10:27;101675.78;;;27.53;38.26
35419;BME280;21525;41.240;16.500;2023-03-20T08:12:53;101665.00;;;27.02;39.41
35419;BME280;21525;41.240;16.500;2023-03-20T08:15:19;101669.38;;;26.76;39.34
35419;BME280;21525;41.240;16.500;2023-03-20T08:17:45;101670.22;;;26.76;39.84
35419;BME280;21525;41.240;16.500;2023-03-20T08:20:13;101663.28;;;27.53;38.96
35419;BME280;21525;41.240;16.500;2023-03-20T08:22:39;101665.84;;;26.49;40.74
35419;BME280;21525;41.240;16.500;2023-03-20T08:25:06;101654.56;;;26.31;40.60
35419;BME280;21525;41.240;16.500;2023-03-20T08:27:33;101641.78;;;26.22;41.20
35419;BME280;21525;41.240;16.500;2023-03-20T08:29:59;101656.66;;;26.11;41.25
35419;BME280;21525;41.240;16.500;2023-03-20T08:32:25;101662.38;;;25.91;41.81
35419;BME280;21525;41.240;16.500;2023-03-20T08:34:51;101657.56;;;25.54;42.92
35419;BME280;21525;41.240;16.500;2023-03-20T08:37:20;101663.81;;;25.83;42.36
35419;BME280;21525;41.240;16.500;2023-03-20T08:39:46;101670.28;;;25.34;43.08
35419;BME280;21525;41.240;16.500;2023-03-20T08:42:12;101658.94;;;26.03;42.97
35419;BME280;21525;41.240;16.500;2023-03-20T08:44:38;101666.44;;;26.39;42.32
35419;BME280;21525;41.240;16.500;2023-03-20T08:47:04;101659.03;;;25.73;43.05
35419;BME280;21525;41.240;16.500;2023-03-20T08:49:32;101666.50;;;26.52;41.84
35419;BME280;21525;41.240;16.500;2023-03-20T08:51:59;101662.75;;;26.14;42.81
35419;BME280;21525;41.240;16.500;2023-03-20T08:54:25;101665.41;;;25.71;42.70
35419;BME280;21525;41.240;16.500;2023-03-20T08:56:50;101658.47;;;25.24;44.22
35419;BME280;21525;41.240;16.500;2023-03-20T08:59:16;101650.47;;;24.94;45.26
35419;BME280;21525;41.240;16.500;2023-03-20T09:01:44;101631.44;;;24.70;45.78
35419;BME280;21525;41.240;16.500;2023-03-20T09:04:11;101642.44;;;24.96;45.71
35419;BME280;21525;41.240;16.500;2023-03-20T09:06:38;101645.53;;;25.18;45.84
35419;BME280;21525;41.240;16.500;2023-03-20T09:09:04;101661.75;;;24.52;46.22
35419;BME280;21525;41.240;16.500;2023-03-20T09:11:30;101654.00;;;24.95;45.76
35419;BME280;21525;41.240;16.500;2023-03-20T09:13:57;101644.81;;;25.44;44.62
35419;BME280;21525;41.240;16.500;2023-03-20T09:16:24;101641.72;;;24.92;46.29
35419;BME280;21525;41.240;16.500;2023-03-20T09:18:50;101637.72;;;25.88;45.12
35419;BME280;21525;41.240;16.500;2023-03-20T09:21:15;101647.16;;;26.75;43.40
35419;BME280;21525;41.240;16.500;2023-03-20T09:23:41;101641.59;;;26.25;43.06
35419;BME280;21525;41.240;16.500;2023-03-20T09:26:07;101645.16;;;26.52;42.82
35419;BME280;21525;41.240;16.500;2023-03-20T09:28:34;101647.22;;;26.88;42.34
35419;BME280;21525;41.240;16.500;2023-03-20T09:31:00;101646.56;;;26.17;43.42
35419;BME280;21525;41.240;16.500;2023-03-20T09:33:26;101637.78;;;26.15;43.61
35419;BME280;21525;41.240;16.500;2023-03-20T09:35:52;101643.00;;;26.44;43.30
35419;BME280;21525;41.240;16.500;2023-03-20T09:38:18;101633.53;;;25.98;43.90
35419;BME280;21525;41.240;16.500;2023-03-20T09:40:58;101637.16;;;25.83;44.64
35419;BME280;21525;41.240;16.500;2023-03-20T09:52:39;101652.84;;;23.56;50.96
35419;BME280;21525;41.240;16.500;2023-03-20T09:55:14;101658.38;;;24.01;49.86
35419;BME280;21525;41.240;16.500;2023-03-20T09:57:50;101654.63;;;24.37;49.40
35419;BME280;21525;41.240;16.500;2023-03-20T10:00:20;101664.78;;;24.30;48.62
35419;BME280;21525;41.240;16.500;2023-03-20T10:02:55;101648.41;;;23.39;50.27
35419;BME280;21525;41.240;16.500;2023-03-20T10:05:35;101632.34;;;24.39;49.39
35419;BME280;21525;41.240;16.500;2023-03-20T10:08:04;101636.72;;;24.25;49.69
35419;BME280;21525;41.240;16.500;2023-03-20T10:10:55;101635.69;;;23.78;50.86
35419;BME280;21525;41.240;16.500;2023-03-20T10:16:26;101620.19;;;24.81;48.70
35419;BME280;21525;41.240;16.500;2023-03-20T10:19:05;101630.13;;;24.32;49.43
35419;BME280;21525;41.240;16.500;2023-03-20T10:21:42;101635.56;;;23.97;49.90
35419;BME280;21525;41.240;16.500;2023-03-20T10:24:27;101614.72;;;25.14;47.26
35419;BME280;21525;41.240;16.500;2023-03-20T10:26:55;101618.47;;;23.70;49.49
35419;BME280;21525;41.240;16.500;2023-03-20T10:32:18;101621.22;;;22.82;53.61
35419;BME280;21525;41.240;16.500;2023-03-20T10:39:59;101625.69;;;22.44;57.33
35419;BME280;21525;41.240;16.500;2023-03-20T10:42:38;101626.75;;;22.41;57.68
35419;BME280;21525;41.240;16.500;2023-03-20T10:45:27;101618.88;;;22.40;56.08
35419;BME280;21525;41.240;16.500;2023-03-20T10:47:56;101628.41;;;22.61;56.89
35419;BME280;21525;41.240;16.500;2023-03-20T10:50:28;101639.97;;;23.31;54.17
35419;BME280;21525;41.240;16.500;2023-03-20T10:52:56;101635.50;;;22.06;57.93
35419;BME280;21525;41.240;16.500;2023-03-20T10:55:26;101629.97;;;23.19;55.47
35419;BME280;21525;41.240;16.500;2023-03-20T10:57:57;101635.16;;;22.50;56.67
35419;BME280;21525;41.240;16.500;2023-03-20T11:00:25;101631.84;;;22.08;57.56
35419;BME280;21525;41.240;16.500;2023-03-20T11:02:51;101624.59;;;23.03;55.94
35419;BME280;21525;41.240;16.500;2023-03-20T11:05:37;101616.16;;;22.95;56.34
35419;BME280;21525;41.240;16.500;2023-03-20T11:08:11;101612.88;;;23.07;54.98
35419;BME280;21525;41.240;16.500;2023-03-20T11:10:39;101605.06;;;23.56;53.17
35419;BME280;21525;41.240;16.500;2023-03-20T11:15:41;101598.97;;;24.18;51.76
35419;BME280;21525;41.240;16.500;2023-03-20T11:18:11;101598.44;;;22.78;56.62
35419;BME280;21525;41.240;16.500;2023-03-20T11:20:50;101583.69;;;23.90;53.53
35419;BME280;21525;41.240;16.500;2023-03-20T11:23:19;101582.91;;;24.20;51.81
35419;BME280;21525;41.240;16.500;2023-03-20T11:25:52;101588.69;;;23.30;55.11
35419;BME280;21525;41.240;16.500;2023-03-20T11:31:01;101570.56;;;22.69;58.09
35419;BME280;21525;41.240;16.500;2023-03-20T11:33:29;101578.97;;;22.60;59.17
35419;BME280;21525;41.240;16.500;2023-03-20T11:35:57;101573.72;;;21.85;65.17
35419;BME280;21525;41.240;16.500;2023-03-20T11:38:23;101560.31;;;22.08;65.60
35419;BME280;21525;41.240;16.500;2023-03-20T11:40:50;101555.47;;;22.17;65.74
35419;BME280;21525;41.240;16.500;2023-03-20T11:43:26;101567.84;;;21.78;69.78
35419;BME280;21525;41.240;16.500;2023-03-20T11:45:57;101557.97;;;21.63;72.41
35419;BME280;21525;41.240;16.500;2023-03-20T11:48:36;101550.59;;;22.62;65.95
35419;BME280;21525;41.240;16.500;2023-03-20T11:51:10;101543.09;;;22.70;63.21
35419;BME280;21525;41.240;16.500;2023-03-20T11:53:52;101537.00;;;22.34;65.86
35419;BME280;21525;41.240;16.500;2023-03-20T11:56:25;101537.34;;;22.09;69.73
35419;BME280;21525;41.240;16.500;2023-03-20T12:01:53;101546.94;;;22.82;66.73
35419;BME280;21525;41.240;16.500;2023-03-20T12:04:34;101544.94;;;23.37;61.38
35419;BME280;21525;41.240;16.500;2023-03-20T12:07:29;101548.09;;;23.44;60.31
35419;BME280;21525;41.240;16.500;2023-03-20T12:12:50;101540.13;;;23.77;56.75
35419;BME280;21525;41.240;16.500;2023-03-20T12:15:25;101541.06;;;23.43;59.10
35419;BME280;21525;41.240;16.500;2023-03-20T12:20:41;101523.53;;;25.53;51.55
35419;BME280;21525;41.240;16.500;2023-03-20T12:23:12;101515.03;;;23.67;57.40
35419;BME280;21525;41.240;16.500;2023-03-20T12:25:54;101510.19;;;22.92;60.88
35419;BME280;21525;41.240;16.500;2023-03-20T12:33:56;101503.28;;;22.00;70.78
35419;BME280;21525;41.240;16.500;2023-03-20T12:36:37;101502.88;;;21.34;74.18
35419;BME280;21525;41.240;16.500;2023-03-20T12:39:06;101491.97;;;21.21;74.33
35419;BME280;21525;41.240;16.500;2023-03-20T12:55:09;101478.97;;;23.30;62.17
35419;BME280;21525;41.240;16.500;2023-03-20T13:00:25;101483.06;;;23.53;60.94
35419;BME280;21525;41.240;16.500;2023-03-20T13:05:46;101483.66;;;23.73;54.51
35419;BME280;21525;41.240;16.500;2023-03-20T13:13:48;101496.56;;;21.55;70.28
35419;BME280;21525;41.240;16.500;2023-03-20T13:16:38;101483.81;;;22.54;63.73
35419;BME280;21525;41.240;16.500;2023-03-20T13:19:24;101487.81;;;22.63;62.21
35419;BME280;21525;41.240;16.500;2023-03-20T13:21:57;101485.59;;;22.00;64.27
35419;BME280;21525;41.240;16.500;2023-03-20T13:24:34;101489.47;;;22.12;65.51
35419;BME280;21525;41.240;16.500;2023-03-20T13:29:51;101482.34;;;24.12;60.49
35419;BME280;21525;41.240;16.500;2023-03-20T13:45:32;101454.28;;;23.92;59.80
35419;BME280;21525;41.240;16.500;2023-03-20T13:48:04;101477.53;;;21.85;65.82
35419;BME280;21525;41.240;16.500;2023-03-20T14:02:15;101482.69;;;23.10;63.85
35419;BME280;21525;41.240;16.500;2023-03-20T14:04:22;101484.44;;;23.91;61.99
35419;BME280;21525;41.240;16.500;2023-03-20T14:06:56;101487.13;;;24.37;59.59
35419;BME280;21525;41.240;16.500;2023-03-20T14:09:40;101487.34;;;23.55;55.28
35419;BME280;21525;41.240;16.500;2023-03-20T14:12:08;101483.28;;;23.32;55.11
35419;BME280;21525;41.240;16.500;2023-03-20T14:14:45;101482.94;;;22.19;64.69
35419;BME280;21525;41.240;16.500;2023-03-20T14:17:19;101480.34;;;22.18;70.29
35419;BME280;21525;41.240;16.500;2023-03-20T14:19:47;101471.50;;;22.36;69.47
35419;BME280;21525;41.240;16.500;2023-03-20T14:22:20;101474.31;;;22.67;70.24
35419;BME280;21525;41.240;16.500;2023-03-20T14:24:55;101465.06;;;22.41;75.38
35419;BME280;21525;41.240;16.500;2023-03-20T14:27:24;101469.94;;;21.77;76.35
35419;BME280;21525;41.240;16.500;2023-03-20T14:29:51;101461.19;;;22.12;75.25
35419;BME280;21525;41.240;16.500;2023-03-20T14:34:59;101459.41;;;22.30;74.12
35419;BME280;21525;41.240;16.500;2023-03-20T14:37:29;101465.41;;;21.04;83.28
35419;BME280;21525;41.240;16.500;2023-03-20T14:40:15;101451.25;;;22.35;78.19
35419;BME280;21525;41.240;16.500;2023-03-20T14:43:00;101453.88;;;22.69;74.35
35419;BME280;21525;41.240;16.500;2023-03-20T14:45:43;101455.03;;;21.93;82.40
35419;BME280;21525;41.240;16.500;2023-03-20T14:48:33;101455.22;;;21.53;82.49
35419;BME280;21525;41.240;16.500;2023-03-20T14:53:39;101449.91;;;21.90;79.79
35419;BME280;21525;41.240;16.500;2023-03-20T14:56:09;101453.50;;;21.70;82.28
35419;BME280;21525;41.240;16.500;2023-03-20T14:59:02;101459.41;;;22.65;76.24
35419;BME280;21525;41.240;16.500;2023-03-20T15:04:07;101447.78;;;23.18;69.43
35419;BME280;21525;41.240;16.500;2023-03-20T15:06:34;101450.00;;;23.74;66.73
35419;BME280;21525;41.240;16.500;2023-03-20T15:09:09;101449.72;;;23.31;68.47
35419;BME280;21525;41.240;16.500;2023-03-20T15:11:36;101460.13;;;22.34;71.83
35419;BME280;21525;41.240;16.500;2023-03-20T15:14:05;101450.63;;;23.63;66.71
35419;BME280;21525;41.240;16.500;2023-03-20T15:16:34;101464.03;;;22.78;69.79
35419;BME280;21525;41.240;16.500;2023-03-20T15:19:00;101456.38;;;23.23;67.84
35419;BME280;21525;41.240;16.500;2023-03-20T15:21:33;101450.34;;;23.19;68.10
35419;BME280;21525;41.240;16.500;2023-03-20T15:24:00;101447.28;;;23.42;67.06